Meteo Giornale » Osservazioni meteo Stati Uniti (USA) » Los Angeles

ore: 16:53 - Osservazioni Meteo Los Angeles
Lat. 33° 56' N Lon. 118° 23' W Alt. 38 metri s.l.m.

poco_nuvoloso America/Los_Angeles

23 °C

Poco Nuvoloso

Temp. 24 Ore

16 °C

27 °C

Ovest

25.9 Km/h

Dew point 9 °C

Umidità 40 %

Visibilità  10 Km

Il sole sorge alle ore 06:42

Il sole tramonta alle ore 18:47

Data e Ora Cielo e Fenomeni T °C DP °C Um. % Pres. hPa Vis. km Vento km/h
Oggi h: 16:53 poco_nuvoloso Poco Nuvoloso 23 9 40 1010 10 O 25.9
Oggi h: 15:53 sereno Sereno 23 10 43 1010 10 O 29.6
Oggi h: 14:53 sereno Sereno 23 13 53 1010 10 O 24
Oggi h: 13:53 sereno Sereno 24 13 50 1011 10 O 22.2
Oggi h: 12:53 poco_nuvoloso Poco Nuvoloso 24 13 50 1011 10 O 20.3
Oggi h: 11:53 poco_nuvoloso Poco Nuvoloso 27 9 32 1011 10 N 11.1
Oggi h: 10:53 sereno Sereno 25 11 41 1012 10 N 5.5
Oggi h: 09:53 sereno Sereno 23 11 46 1012 10 N 5.5
Oggi h: 08:53 sereno Sereno 21 11 52 1012 10 N 5.5
Oggi h: 07:53 sereno Sereno 17 12 72 1012 10 N 0
Oggi h: 06:53 sereno Sereno 16 12 77 1011 10 SE 9.3
Oggi h: 05:53 sereno Sereno 16 12 77 1010 10 N 0
Oggi h: 04:53 sereno Sereno 16 12 77 1010 10 N 5.5
Oggi h: 03:53 sereno Sereno 17 13 77 1010 10 N 5.5
Oggi h: 02:53 sereno Sereno 17 13 77 1010 10 NE 9.3
Oggi h: 01:53 sereno Sereno 17 13 77 1011 10 NE 7.4
Oggi h: 00:53 sereno Sereno 16 13 82 1011 10 N 5.5
Ieri h: 23:53 sereno Sereno 17 13 77 1010 10 N 5.5
Ieri h: 22:53 sereno Sereno 18 13 72 1010 10 N 0
Ieri h: 21:53 sereno Sereno 18 13 72 1010 10 O/SO 7.4
Ieri h: 20:53 poco_nuvoloso Poco Nuvoloso 18 13 72 1010 10 O 13
Ieri h: 19:53 poco_nuvoloso Poco Nuvoloso 18 14 77 1010 10 O/SO 9.3
Ieri h: 18:53 poco_nuvoloso Poco Nuvoloso 18 14 77 1010 10 O 18.5
Ieri h: 17:53 nuvoloso Nuvoloso 19 16 82 1010 10 O/SO 25.9